Terminal Aerodrome Forecast
Issued by NWS

Home | Current Version | Previous Version | Graphics & Text | Print | Product List | Glossary Off
Versions: 1 2 3 4 5 6 7 8 9 10 11 12

000
FTUS42 KMHX 290500
TAFOAJ
TAF
KOAJ 290540Z 2906/3006 00000KT 3/4SM BR OVC007
     FM290800 32003KT 1SM BR SCT003 OVC007
     FM291100 03006KT 2SM -RA BR OVC003
      AMD LTD TO CLD VIS AND WIND=

USA.gov is the U.S. government's official web portal to all federal, state and local government web resources and services.